West Suffield, Connecticut
Current Conditions -  °F | °C
As of 1:51 AM on Wednesday 22 Oct 2014 (Local Time) from KBDL Reporting Station
Overcast Overcast  
Wind Chill: 54°   Ceiling: 1100
Heat Index: 54°   Visibility: 10mi
Dew Point: 49°   Wind: 14mph
Humidity: 83%   Direction: 360°N
Pressure: 29.95"   Gusts: NA
Location:  41.99°N, 72.69°W
Report Text: KBDL 220551Z 36012KT 10SM OVC011 12/09 A2995 RMK AO2 RAE11 SLP142 P0000 60000 T01220094 10133 20122 58004
Loading
Personal Weather Stations






























Interactive Weather Map
Tropical Storm Tracking
New forecast layout! Learn more

10-Day Weather Forecast

Advertisements
Track Severe Weather on mobile